createdAt,value
2023-05-20T00:01:22.657Z,102528.84
2023-05-20T00:04:44.719Z,102526.25
2023-05-20T00:08:09.582Z,102529.78
2023-05-20T00:11:31.782Z,102535.03
2023-05-20T00:14:55.874Z,102539.41
2023-05-20T00:18:19.531Z,102539.44
2023-05-20T00:21:41.501Z,102539.47
2023-05-20T00:25:03.547Z,102541.25
2023-05-20T00:28:25.768Z,102539.53
2023-05-20T00:31:47.682Z,102546.47
2023-05-20T00:35:11.799Z,102546.50
2023-05-20T00:38:33.418Z,102540.44
2023-05-20T00:41:55.711Z,102543.06
2023-05-20T00:45:17.979Z,102508.41
2023-05-20T00:48:43.893Z,102543.97
2023-05-20T00:52:09.326Z,102550.06
2023-05-20T00:55:34.652Z,102556.13
2023-05-20T00:58:57.223Z,102559.66
2023-05-20T01:02:19.389Z,102568.31
2023-05-20T01:05:42.372Z,102546.69
2023-05-20T01:09:06.038Z,102575.31
2023-05-20T01:12:30.068Z,102571.81
2023-05-20T01:15:53.420Z,102574.44
2023-05-20T01:19:28.366Z,102574.41
2023-05-20T01:22:55.332Z,102581.38
2023-05-20T01:26:19.083Z,102577.03
2023-05-20T01:29:41.757Z,102583.13
2023-05-20T01:33:09.233Z,102577.03
2023-05-20T01:36:32.915Z,102583.13
2023-05-20T01:39:57.352Z,102588.31
2023-05-20T01:43:19.697Z,102586.59
2023-05-20T01:46:41.719Z,102586.59
2023-05-20T01:50:03.688Z,102579.66
2023-05-20T01:53:25.629Z,102578.78
2023-05-20T01:56:49.104Z,102582.25
2023-05-20T02:00:12.262Z,102572.72
2023-05-20T02:03:33.978Z,102591.81
2023-05-20T02:06:55.964Z,102590.06
2023-05-20T02:10:17.951Z,102591.81
2023-05-20T02:13:41.233Z,102594.41
2023-05-20T02:17:03.042Z,102583.13
2023-05-20T02:20:24.953Z,102582.25
2023-05-20T02:23:46.871Z,102577.94
2023-05-20T02:27:08.529Z,102581.38
2023-05-20T02:30:31.935Z,102580.50
2023-05-20T02:33:54.150Z,102585.72
2023-05-20T02:37:16.095Z,102584.84
2023-05-20T02:40:38.009Z,102585.72
2023-05-20T02:43:59.743Z,102587.44
2023-05-20T02:47:22.876Z,102587.44
2023-05-20T02:50:45.401Z,102580.47
2023-05-20T02:54:07.236Z,102591.69
2023-05-20T02:57:28.994Z,102590.75
2023-05-20T03:00:50.870Z,102596.81
2023-05-20T03:04:14.435Z,102589.84
2023-05-20T03:07:37.415Z,102596.72
2023-05-20T03:10:59.081Z,102604.41
2023-05-20T03:14:21.344Z,102598.19
2023-05-20T03:17:43.131Z,102603.28
2023-05-20T03:21:06.702Z,102605.84
2023-05-20T03:24:29.201Z,102611.84
2023-05-20T03:27:51.677Z,102603.03
2023-05-20T03:31:13.937Z,102605.47
2023-05-20T03:34:36.905Z,102611.25
2023-05-20T03:38:01.975Z,102608.38
2023-05-20T03:41:24.370Z,102612.34
2023-05-20T03:44:46.455Z,102614.66
2023-05-20T03:48:08.544Z,102611.72
2023-05-20T03:51:30.355Z,102607.94
2023-05-20T03:54:53.656Z,102622.38
2023-05-20T03:58:15.910Z,102606.38
2023-05-20T04:01:37.616Z,102620.75
2023-05-20T04:05:01.502Z,102626.59
2023-05-20T04:08:26.058Z,102620.09
2023-05-20T04:11:49.281Z,102626.72
2023-05-20T04:15:13.018Z,102613.47
2023-05-20T04:18:39.283Z,102627.09
2023-05-20T04:22:01.624Z,102621.41
2023-05-20T04:25:24.055Z,102624.72
2023-05-20T04:28:48.888Z,102620.34
2023-05-20T04:32:11.696Z,102622.75
2023-05-20T04:35:35.528Z,102618.19
2023-05-20T04:38:57.554Z,102624.88
2023-05-20T04:42:20.416Z,102631.44
2023-05-20T04:45:43.681Z,102631.22
2023-05-20T04:49:05.800Z,102626.50
2023-05-20T04:52:27.705Z,102628.34
2023-05-20T04:55:54.076Z,102631.69
2023-05-20T04:59:15.967Z,102634.16
2023-05-20T05:02:39.801Z,102628.72
2023-05-20T05:06:01.490Z,102624.31
2023-05-20T05:09:23.401Z,102630.53
2023-05-20T05:12:45.342Z,102633.88
2023-05-20T05:16:07.820Z,102637.69
2023-05-20T05:19:31.350Z,102636.56
2023-05-20T05:22:53.599Z,102626.50
2023-05-20T05:26:15.496Z,102619.91
2023-05-20T05:29:37.376Z,102638.22
2023-05-20T05:32:59.248Z,102632.47
2023-05-20T05:36:22.819Z,102633.97
2023-05-20T05:39:44.756Z,102637.91
2023-05-20T05:43:06.602Z,102635.41
2023-05-20T05:46:28.466Z,102629.53
2023-05-20T05:49:50.374Z,102632.63
2023-05-20T05:53:13.544Z,102630.09
2023-05-20T05:56:35.596Z,102625.03
2023-05-20T05:59:57.630Z,102623.81
2023-05-20T06:03:19.530Z,102615.19
2023-05-20T06:06:42.118Z,102622.56
2023-05-20T06:10:06.375Z,102618.72
2023-05-20T06:13:30.696Z,102621.84
2023-05-20T06:16:52.634Z,102614.28
2023-05-20T06:20:14.796Z,102614.47
2023-05-20T06:23:36.566Z,102617.56
2023-05-20T06:27:00.000Z,102621.53
2023-05-20T06:30:25.158Z,102619.34
2023-05-20T06:33:47.041Z,102585.88
2023-05-20T06:37:09.117Z,102622.22
2023-05-20T06:40:31.224Z,102626.31
2023-05-20T06:43:54.705Z,102623.03
2023-05-20T06:47:18.060Z,102628.31
2023-05-20T06:50:40.000Z,102630.44
2023-05-20T06:54:01.767Z,102622.47
2023-05-20T06:57:23.788Z,102621.97
2023-05-20T07:00:48.548Z,102620.75
2023-05-20T07:04:10.515Z,102627.19
2023-05-20T07:07:32.822Z,102591.84
2023-05-20T07:10:57.179Z,102615.41
2023-05-20T07:14:19.085Z,102603.00
2023-05-20T07:17:42.316Z,102605.59
2023-05-20T07:21:04.237Z,102594.78
2023-05-20T07:24:26.058Z,102566.44
2023-05-20T07:27:47.767Z,102597.41
2023-05-20T07:31:09.521Z,102593.56
2023-05-20T07:34:32.621Z,102591.91
2023-05-20T07:37:57.239Z,102591.75
2023-05-20T07:41:19.223Z,102587.53
2023-05-20T07:44:41.013Z,102588.47
2023-05-20T07:48:02.985Z,102592.44
2023-05-20T07:51:26.419Z,102584.41
2023-05-20T07:54:48.351Z,102588.16
2023-05-20T07:58:10.560Z,102578.94
2023-05-20T08:01:32.344Z,102587.16
2023-05-20T08:04:54.620Z,102581.66
2023-05-20T08:08:18.266Z,102573.34
2023-05-20T08:11:40.241Z,102571.75
2023-05-20T08:15:01.992Z,102581.13
2023-05-20T08:18:24.011Z,102585.13
2023-05-20T08:21:46.869Z,102576.56
2023-05-20T08:25:11.615Z,102580.81
2023-05-20T08:28:33.839Z,102571.84
2023-05-20T08:31:55.812Z,102568.97
2023-05-20T08:35:17.709Z,102569.75
2023-05-20T08:38:39.451Z,102578.09
2023-05-20T08:42:03.259Z,102575.16
2023-05-20T08:45:28.768Z,102576.94
2023-05-20T08:48:50.984Z,102579.09
2023-05-20T08:52:15.047Z,102566.16
2023-05-20T08:55:43.424Z,102579.69
2023-05-20T08:59:06.682Z,102580.28
2023-05-20T09:02:28.708Z,102578.19
2023-05-20T09:05:50.875Z,102566.03
2023-05-20T09:09:13.341Z,102566.03
2023-05-20T09:12:35.171Z,102570.94
2023-05-20T09:16:00.542Z,102559.56
2023-05-20T09:19:24.708Z,102566.19
2023-05-20T09:22:46.952Z,102561.97
2023-05-20T09:26:08.883Z,102553.94
2023-05-20T09:29:35.121Z,102534.75
2023-05-20T09:32:59.504Z,102546.72
2023-05-20T09:36:23.720Z,102548.53
2023-05-20T09:39:52.169Z,102542.06
2023-05-20T09:43:14.450Z,102541.63
2023-05-20T09:46:37.792Z,102541.09
2023-05-20T09:50:04.072Z,102544.59
2023-05-20T09:53:28.427Z,102541.94
2023-05-20T09:56:50.988Z,102549.59
2023-05-20T10:00:15.764Z,102543.75
2023-05-20T10:03:37.857Z,102545.28
2023-05-20T10:07:30.799Z,102549.53
2023-05-20T10:11:12.955Z,102542.91
2023-05-20T10:14:49.164Z,102537.00
2023-05-20T10:18:31.307Z,102533.59
2023-05-20T10:22:01.909Z,102532.63
2023-05-20T10:25:29.331Z,102528.00
2023-05-20T10:28:51.316Z,102533.94
2023-05-20T10:32:13.221Z,102526.31
2023-05-20T10:35:35.032Z,102520.84
2023-05-20T10:38:58.218Z,102516.38
2023-05-20T10:42:30.084Z,102517.16
2023-05-20T10:45:53.882Z,102521.44
2023-05-20T10:49:22.284Z,102519.47
2023-05-20T10:52:45.343Z,102505.75
2023-05-20T10:56:08.172Z,102503.09
2023-05-20T10:59:31.496Z,102505.50
2023-05-20T11:02:53.471Z,102504.31
2023-05-20T11:06:18.198Z,102499.06
2023-05-20T11:09:40.730Z,102491.03
2023-05-20T11:13:04.317Z,102491.88
2023-05-20T11:16:27.568Z,102489.22
2023-05-20T11:19:50.053Z,102483.13
2023-05-20T11:23:14.025Z,102477.31
2023-05-20T11:26:36.109Z,102476.78
2023-05-20T11:29:58.527Z,102471.41
2023-05-20T11:33:21.673Z,102464.78
2023-05-20T11:36:43.583Z,102456.19
2023-05-20T11:40:09.588Z,102464.00
2023-05-20T11:43:35.069Z,102462.03
2023-05-20T11:47:01.699Z,102448.56
2023-05-20T11:50:25.143Z,102450.59
2023-05-20T11:53:48.907Z,102443.47
2023-05-20T11:57:12.709Z,102438.84
2023-05-20T12:00:49.390Z,102432.50
2023-05-20T12:04:13.526Z,102430.34
2023-05-20T12:07:37.668Z,102437.09
2023-05-20T12:10:59.580Z,102421.50
2023-05-20T12:14:21.337Z,102430.75
2023-05-20T12:17:48.939Z,102436.91
2023-05-20T12:21:10.804Z,102425.41
2023-05-20T12:24:33.967Z,102422.59
2023-05-20T12:27:56.070Z,102422.75
2023-05-20T12:31:18.012Z,102426.56
2023-05-20T12:34:39.883Z,102427.50
2023-05-20T12:38:01.883Z,102428.94
2023-05-20T12:41:25.610Z,102413.75
2023-05-20T12:44:47.605Z,102406.44
2023-05-20T12:48:09.713Z,102407.09
2023-05-20T12:51:31.632Z,102405.34
2023-05-20T12:54:53.456Z,102388.31
2023-05-20T12:58:16.581Z,102393.94
2023-05-20T13:01:38.860Z,102392.78
2023-05-20T13:05:00.888Z,102391.94
2023-05-20T13:08:22.891Z,102382.91
2023-05-20T13:11:45.230Z,102384.25
2023-05-20T13:15:09.842Z,102370.28
2023-05-20T13:18:31.877Z,102364.97
2023-05-20T13:21:54.774Z,102375.41
2023-05-20T13:25:16.649Z,102375.09
2023-05-20T13:28:38.330Z,102373.88
2023-05-20T13:32:02.163Z,102356.28
2023-05-20T13:35:24.062Z,102365.69
2023-05-20T13:38:46.268Z,102357.50
2023-05-20T13:42:08.378Z,102368.00
2023-05-20T13:45:30.859Z,102350.13
2023-05-20T13:48:54.261Z,102357.50
2023-05-20T13:52:16.345Z,102351.34
2023-05-20T13:55:38.145Z,102348.88
2023-05-20T13:59:00.379Z,102347.41
2023-05-20T14:02:22.501Z,102355.50
2023-05-20T14:05:46.263Z,102350.19
2023-05-20T14:09:09.519Z,102346.34
2023-05-20T14:12:31.805Z,102326.03
2023-05-20T14:15:54.919Z,102334.91
2023-05-20T14:19:16.791Z,102324.69
2023-05-20T14:22:40.089Z,102328.88
2023-05-20T14:26:02.256Z,102321.09
2023-05-20T14:29:23.993Z,102322.78
2023-05-20T14:32:45.723Z,102319.47
2023-05-20T14:36:08.052Z,102313.66
2023-05-20T14:39:31.621Z,102309.91
2023-05-20T14:42:53.620Z,102311.44
2023-05-20T14:46:15.587Z,102302.38
2023-05-20T14:49:39.252Z,102296.72
2023-05-20T14:53:00.962Z,102297.38
2023-05-20T14:56:24.440Z,102300.69
2023-05-20T14:59:46.558Z,102297.28
2023-05-20T15:03:10.359Z,102295.13
2023-05-20T15:06:35.131Z,102291.19
2023-05-20T15:09:56.939Z,102287.97
2023-05-20T15:13:20.192Z,102289.38
2023-05-20T15:16:42.233Z,102281.31
2023-05-20T15:20:04.539Z,102272.03
2023-05-20T15:23:26.479Z,102277.47
2023-05-20T15:26:48.610Z,102268.41
2023-05-20T15:30:12.955Z,102268.63
2023-05-20T15:33:35.447Z,102270.53
2023-05-20T15:36:57.393Z,102259.16
2023-05-20T15:40:19.376Z,102261.13
2023-05-20T15:43:41.447Z,102269.47
2023-05-20T15:47:06.228Z,102273.25
2023-05-20T15:50:28.930Z,102257.03
2023-05-20T15:53:50.961Z,102262.22
2023-05-20T15:57:13.148Z,102254.41
2023-05-20T16:00:35.276Z,102245.72
2023-05-20T16:03:59.567Z,102249.06
2023-05-20T16:07:21.777Z,102237.84
2023-05-20T16:10:43.423Z,102236.25
2023-05-20T16:14:05.429Z,102241.06
2023-05-20T16:17:27.408Z,102229.75
2023-05-20T16:20:50.369Z,102237.22
2023-05-20T16:24:12.559Z,102237.75
2023-05-20T16:27:34.677Z,102246.72
2023-05-20T16:30:56.465Z,102239.94
2023-05-20T16:34:18.277Z,102227.53
2023-05-20T16:37:41.670Z,102236.44
2023-05-20T16:41:03.511Z,102231.78
2023-05-20T16:44:25.593Z,102232.63
2023-05-20T16:47:47.745Z,102224.53
2023-05-20T16:51:09.544Z,102231.63
2023-05-20T16:54:36.362Z,102224.22
2023-05-20T16:57:58.422Z,102227.81
2023-05-20T17:01:20.441Z,102235.13
2023-05-20T17:04:42.489Z,102231.56
2023-05-20T17:08:04.417Z,102236.31
2023-05-20T17:11:27.624Z,102234.63
2023-05-20T17:14:49.833Z,102233.47
2023-05-20T17:18:11.943Z,102237.16
2023-05-20T17:21:34.801Z,102237.16
2023-05-20T17:24:56.924Z,102226.81
2023-05-20T17:28:21.380Z,102232.19
2023-05-20T17:31:43.234Z,102226.50
2023-05-20T17:35:05.902Z,102232.56
2023-05-20T17:38:27.736Z,102231.63
2023-05-20T17:41:49.477Z,102221.59
2023-05-20T17:45:13.232Z,102219.16
2023-05-20T17:48:34.986Z,102221.59
2023-05-20T17:51:56.710Z,102224.00
2023-05-20T17:55:19.238Z,102224.56
2023-05-20T17:58:40.884Z,102226.09
2023-05-20T18:02:06.387Z,102216.75
2023-05-20T18:05:28.320Z,102217.59
2023-05-20T18:08:50.066Z,102210.34
2023-05-20T18:12:12.127Z,102233.25
2023-05-20T18:15:33.979Z,102225.81
2023-05-20T18:18:58.004Z,102225.44
2023-05-20T18:22:19.734Z,102232.34
2023-05-20T18:25:42.898Z,102216.16
2023-05-20T18:29:05.052Z,102224.81
2023-05-20T18:32:28.848Z,102229.09
2023-05-20T18:35:52.798Z,102216.06
2023-05-20T18:39:20.296Z,102203.13
2023-05-20T18:42:42.128Z,102219.72
2023-05-20T18:46:03.907Z,102219.44
2023-05-20T18:49:25.727Z,102218.25
2023-05-20T18:52:48.954Z,102222.59
2023-05-20T18:56:11.054Z,102230.41
2023-05-20T18:59:33.287Z,102234.72
2023-05-20T19:02:58.166Z,102232.63
2023-05-20T19:06:20.158Z,102247.31
2023-05-20T19:09:43.415Z,102245.22
2023-05-20T19:13:05.453Z,102250.94
2023-05-20T19:16:27.727Z,102248.59
2023-05-20T19:19:50.047Z,102245.09
2023-05-20T19:23:11.991Z,102254.06
2023-05-20T19:26:35.452Z,102255.94
2023-05-20T19:29:57.552Z,102261.25
2023-05-20T19:33:19.573Z,102257.66
2023-05-20T19:36:43.048Z,102267.81
2023-05-20T19:40:05.441Z,102243.44
2023-05-20T19:43:30.665Z,102271.47
2023-05-20T19:46:53.155Z,102262.50
2023-05-20T19:50:15.215Z,102270.28
2023-05-20T19:53:38.143Z,102263.94
2023-05-20T19:57:00.233Z,102271.53
2023-05-20T20:00:23.707Z,102272.06
2023-05-20T20:03:46.171Z,102273.53
2023-05-20T20:07:09.304Z,102281.28
2023-05-20T20:10:31.837Z,102288.97
2023-05-20T20:13:53.809Z,102289.53
2023-05-20T20:17:17.685Z,102279.34
2023-05-20T20:20:40.828Z,102280.63
2023-05-20T20:24:02.858Z,102278.59
2023-05-20T20:27:24.851Z,102292.28
2023-05-20T20:30:47.061Z,102284.84
2023-05-20T20:34:10.478Z,102282.66
2023-05-20T20:37:33.179Z,102283.97
2023-05-20T20:40:55.182Z,102287.06
2023-05-20T20:44:19.136Z,102277.94
2023-05-20T20:47:41.709Z,102292.88
2023-05-20T20:51:05.342Z,102265.75
2023-05-20T20:54:27.057Z,102283.22
2023-05-20T20:57:49.749Z,102290.41
2023-05-20T21:01:12.356Z,102288.22
2023-05-20T21:04:34.214Z,102291.28
2023-05-20T21:07:59.772Z,102286.31
2023-05-20T21:11:22.546Z,102280.53
2023-05-20T21:14:44.542Z,102272.13
2023-05-20T21:18:06.908Z,102291.66
2023-05-20T21:21:29.056Z,102254.03
2023-05-20T21:24:52.303Z,102294.84
2023-05-20T21:28:14.130Z,102292.44
2023-05-20T21:31:36.028Z,102290.00
2023-05-20T21:34:58.455Z,102284.25
2023-05-20T21:38:20.273Z,102276.72
2023-05-20T21:41:43.471Z,102275.91
2023-05-20T21:45:06.252Z,102267.63
2023-05-20T21:48:28.279Z,102272.19
2023-05-20T21:51:50.013Z,102274.91
2023-05-20T21:55:12.172Z,102279.47
2023-05-20T21:58:40.936Z,102275.38
2023-05-20T22:02:03.073Z,102271.19
2023-05-20T22:05:25.102Z,102265.41
2023-05-20T22:08:46.874Z,102260.34
2023-05-20T22:12:11.225Z,102264.91
2023-05-20T22:15:34.842Z,102254.59
2023-05-20T22:18:57.218Z,102259.13
2023-05-20T22:22:19.057Z,102258.41
2023-05-20T22:25:41.059Z,102254.13
2023-05-20T22:29:03.331Z,102254.22
2023-05-20T22:32:26.544Z,102254.28
2023-05-20T22:35:48.396Z,102247.50
2023-05-20T22:39:10.276Z,102252.06
2023-05-20T22:42:32.246Z,102251.28
2023-05-20T22:45:54.213Z,102253.22
2023-05-20T22:49:18.792Z,102247.38
2023-05-20T22:52:40.827Z,102250.88
2023-05-20T22:56:02.676Z,102245.78
2023-05-20T22:59:25.033Z,102240.69
2023-05-20T23:02:52.627Z,102233.06
2023-05-20T23:06:15.992Z,102237.53
2023-05-20T23:09:37.879Z,102234.13
2023-05-20T23:12:59.790Z,102235.06
2023-05-20T23:16:22.002Z,102228.31
2023-05-20T23:19:43.650Z,102232.00
2023-05-20T23:23:11.130Z,102226.00
2023-05-20T23:26:34.633Z,102226.13
2023-05-20T23:29:56.618Z,102229.72
2023-05-20T23:33:24.421Z,102229.06
2023-05-20T23:36:46.919Z,102230.94
2023-05-20T23:40:11.164Z,102229.25
2023-05-20T23:43:33.215Z,102231.06
2023-05-20T23:46:54.929Z,102232.78
2023-05-20T23:50:16.709Z,102230.22
2023-05-20T23:53:38.699Z,102227.56
2023-05-20T23:57:01.965Z,102217.03
